Time;durP1;ratioP1;P1;durP2;ratioP2;P2;SDS_P1;SDS_P2;PMS_P1;PMS_P2;Temp;Humidity;BMP_temperature;BMP_pressure;BME280_temperature;BME280_humidity;BME280_pressure;Samples;Min_cycle;Max_cycle;Signal;HPM_P1;HPM_P2
2022/04/22 00:01:29;;;;;;;0.00;0.00;;;12.40;99.90;;;;;;4957577;29;20074;-85
2022/04/22 00:03:57;;;;;;;0.45;0.40;;;12.50;99.90;;;;;;4939667;29;20062;-85
2022/04/22 00:06:23;;;;;;;0.17;0.17;;;12.50;99.90;;;;;;4956028;28;20073;-77
2022/04/22 00:08:49;;;;;;;0.05;0.05;;;12.50;99.90;;;;;;4956379;29;20082;-77
2022/04/22 00:11:30;;;;;;;0.05;0.05;;;12.50;99.90;;;;;;4940291;29;20062;-77
2022/04/22 00:14:00;;;;;;;0.05;0.05;;;12.50;99.90;;;;;;4957053;29;20073;-77
2022/04/22 00:16:28;;;;;;;0.32;0.32;;;12.50;99.90;;;;;;4957275;29;20037;-84
2022/04/22 00:18:55;;;;;;;0.40;0.35;;;12.50;99.90;;;;;;4939648;28;20421;-77
2022/04/22 00:21:21;;;;;;;4.68;0.45;;;12.50;99.90;;;;;;4958990;28;20041;-76
2022/04/22 00:23:50;;;;;;;0.70;0.70;;;12.50;99.90;;;;;;4959660;28;20398;-77
2022/04/22 00:26:17;;;;;;;0.08;0.08;;;12.40;99.90;;;;;;4976660;28;20502;-77
2022/04/22 00:28:43;;;;;;;0.20;0.17;;;12.40;99.90;;;;;;4976802;28;20022;-77
2022/04/22 00:31:09;;;;;;;1.17;0.85;;;12.40;99.90;;;;;;4958634;28;20033;-86
2022/04/22 00:33:35;;;;;;;0.82;0.60;;;12.30;99.90;;;;;;4976420;28;20486;-77
2022/04/22 00:36:01;;;;;;;0.73;0.35;;;12.30;99.90;;;;;;4976638;28;20101;-85
2022/04/22 00:38:27;;;;;;;0.00;0.00;;;12.30;99.90;;;;;;4975875;28;20031;-85
2022/04/22 00:40:55;;;;;;;6.88;1.88;;;12.20;99.90;;;;;;4974692;28;20053;-85
2022/04/22 00:43:26;;;;;;;0.28;0.20;;;12.20;99.90;;;;;;4974985;28;20019;-77
2022/04/22 00:45:53;;;;;;;0.43;0.43;;;12.10;99.90;;;;;;4976191;28;20027;-77
2022/04/22 00:48:22;;;;;;;0.08;0.08;;;12.10;99.90;;;;;;4958723;28;20062;-77
2022/04/22 00:50:48;;;;;;;0.57;0.57;;;12.00;99.90;;;;;;4975344;28;20525;-77
2022/04/22 00:53:15;;;;;;;1.48;0.93;;;11.90;99.90;;;;;;4958293;28;20030;-85
2022/04/22 00:55:46;;;;;;;1.35;0.55;;;11.80;99.90;;;;;;4976192;28;20031;-77
2022/04/22 00:58:12;;;;;;;0.10;0.10;;;11.70;99.90;;;;;;4975537;28;20023;-85
2022/04/22 01:00:39;;;;;;;0.20;0.08;;;11.70;99.90;;;;;;4975686;28;20109;-76
2022/04/22 01:03:08;;;;;;;0.10;0.10;;;11.60;99.90;;;;;;4973166;28;20073;-77
2022/04/22 01:11:04;;;;;;;0.13;0.13;;;11.50;99.90;;;;;;4975854;28;20041;-76
2022/04/22 01:13:31;;;;;;;0.70;0.28;;;11.50;99.90;;;;;;4974785;28;20406;-77
2022/04/22 01:15:57;;;;;;;3.38;0.70;;;11.40;99.90;;;;;;4958070;28;20031;-85
2022/04/22 01:18:23;;;;;;;0.25;0.15;;;11.40;99.90;;;;;;4973552;28;20122;-85
2022/04/22 01:20:50;;;;;;;0.17;0.17;;;11.40;99.90;;;;;;4958168;28;20110;-77
2022/04/22 01:23:16;;;;;;;0.20;0.20;;;11.50;99.90;;;;;;4956604;29;20375;-77
2022/04/22 01:25:42;;;;;;;1.20;1.10;;;11.50;99.90;;;;;;4954253;29;20479;-85
2022/04/22 01:28:12;;;;;;;0.00;0.00;;;11.50;99.90;;;;;;4954454;29;20172;-76
2022/04/22 01:30:41;;;;;;;0.25;0.25;;;11.50;99.90;;;;;;4954651;29;20035;-77
2022/04/22 01:33:08;;;;;;;0.47;0.45;;;11.60;99.90;;;;;;4956287;29;20034;-76
2022/04/22 01:35:33;;;;;;;0.00;0.00;;;11.70;99.90;;;;;;4955439;29;20031;-85
2022/04/22 01:37:59;;;;;;;0.20;0.20;;;11.70;99.90;;;;;;4964869;28;20391;-77
2022/04/22 01:40:25;;;;;;;0.30;0.28;;;11.60;99.90;;;;;;4957506;28;20045;-77
2022/04/22 01:42:51;;;;;;;0.20;0.20;;;11.40;99.90;;;;;;4974876;28;20098;-77
2022/04/22 01:45:17;;;;;;;1.02;0.25;;;11.30;99.90;;;;;;4957869;28;20023;-77
2022/04/22 01:47:43;;;;;;;0.38;0.38;;;11.30;99.90;;;;;;4957583;28;20029;-85
2022/04/22 01:50:09;;;;;;;0.13;0.13;;;11.20;99.90;;;;;;4974574;28;20043;-84
2022/04/22 01:52:40;;;;;;;0.03;0.03;;;11.20;99.90;;;;;;4957614;28;20027;-85
2022/04/22 01:55:07;;;;;;;0.08;0.08;;;11.20;99.90;;;;;;4953950;29;20027;-85
2022/04/22 01:57:33;;;;;;;0.10;0.10;;;11.20;99.90;;;;;;4938284;29;20038;-77
2022/04/22 02:00:01;;;;;;;0.35;0.10;;;11.20;99.90;;;;;;4955055;29;20027;-77
2022/04/22 02:02:27;;;;;;;1.70;0.35;;;11.30;99.90;;;;;;4937826;29;20031;-78
2022/04/22 02:04:53;;;;;;;0.90;0.15;;;11.30;99.90;;;;;;4954938;29;20031;-77
2022/04/22 02:07:19;;;;;;;0.30;0.30;;;11.30;99.90;;;;;;4938361;29;20027;-77
2022/04/22 02:09:45;;;;;;;1.10;0.30;;;11.20;99.90;;;;;;4956005;29;20031;-85
2022/04/22 02:12:11;;;;;;;2.10;1.35;;;11.20;99.90;;;;;;4955261;29;20031;-85
2022/04/22 02:14:36;;;;;;;0.45;0.45;;;11.20;99.90;;;;;;4937831;29;20032;-85
2022/04/22 02:17:02;;;;;;;0.55;0.55;;;11.20;99.90;;;;;;4938081;29;20027;-77
2022/04/22 02:19:29;;;;;;;0.10;0.10;;;11.10;99.90;;;;;;4958892;28;20030;-84
2022/04/22 02:21:54;;;;;;;0.43;0.43;;;11.10;99.90;;;;;;4973860;28;20402;-85
2022/04/22 02:24:20;;;;;;;2.83;0.52;;;11.00;99.90;;;;;;4974639;28;20030;-77
2022/04/22 02:29:30;;;;;;;7.00;0.55;;;10.70;99.90;;;;;;4975860;28;20038;-76
2022/04/22 02:31:56;;;;;;;0.25;0.22;;;10.60;99.90;;;;;;4961383;28;20027;-77
2022/04/22 02:34:23;;;;;;;0.57;0.40;;;10.50;99.90;;;;;;4977478;28;20502;-77
2022/04/22 02:36:51;;;;;;;1.85;0.40;;;10.40;99.90;;;;;;4978610;28;20031;-77
2022/04/22 02:39:18;;;;;;;2.35;1.50;;;10.40;99.90;;;;;;4960807;28;20023;-76
2022/04/22 02:47:20;;;;;;;3.30;1.30;;;10.40;99.90;;;;;;4978501;28;20038;-77
2022/04/22 02:49:46;;;;;;;1.58;0.90;;;10.30;99.90;;;;;;4978016;28;20031;-86
2022/04/22 02:52:13;;;;;;;3.03;1.38;;;10.30;99.90;;;;;;4978840;28;20505;-76
2022/04/22 02:54:38;;;;;;;1.33;0.98;;;10.20;99.90;;;;;;4977782;28;20134;-85
2022/04/22 02:57:05;;;;;;;1.17;0.77;;;10.20;99.90;;;;;;4978675;28;20030;-77
2022/04/22 02:59:32;;;;;;;0.80;0.80;;;10.20;99.90;;;;;;4978090;28;20441;-77
2022/04/22 03:01:58;;;;;;;0.40;0.20;;;10.20;99.90;;;;;;4976858;28;20470;-77
2022/04/22 03:04:26;;;;;;;3.08;1.48;;;10.20;99.90;;;;;;4975622;28;20518;-77
2022/04/22 03:06:52;;;;;;;1.83;0.77;;;10.20;99.90;;;;;;4976635;28;20031;-77
2022/04/22 03:09:18;;;;;;;2.35;1.95;;;10.30;99.90;;;;;;4959611;28;20474;-77
2022/04/22 03:11:44;;;;;;;4.20;1.98;;;10.30;99.90;;;;;;4977854;28;20023;-76
2022/04/22 03:14:10;;;;;;;3.35;1.60;;;10.20;99.90;;;;;;4960382;28;20046;-77
2022/04/22 03:16:36;;;;;;;0.40;0.40;;;10.10;99.90;;;;;;4977662;28;20444;-85
2022/04/22 03:19:02;;;;;;;0.35;0.35;;;10.00;99.90;;;;;;4975355;28;20027;-77
2022/04/22 03:21:31;;;;;;;0.73;0.70;;;10.00;99.90;;;;;;4978283;28;20027;-85
2022/04/22 03:23:57;;;;;;;1.67;0.80;;;10.00;99.90;;;;;;4978255;28;20089;-77
2022/04/22 03:26:24;;;;;;;1.38;0.60;;;10.10;99.90;;;;;;4977515;28;20026;-77
2022/04/22 03:28:50;;;;;;;2.28;0.57;;;10.10;99.90;;;;;;4977059;28;20031;-77
2022/04/22 03:31:16;;;;;;;2.20;1.05;;;10.10;99.90;;;;;;4977323;28;20102;-85
2022/04/22 03:33:43;;;;;;;1.02;1.02;;;10.20;99.90;;;;;;4977969;28;20478;-77
2022/04/22 03:36:08;;;;;;;0.43;0.43;;;10.20;99.90;;;;;;4977479;28;20042;-85
2022/04/22 03:38:35;;;;;;;1.50;1.15;;;10.20;99.90;;;;;;4977222;28;20027;-85
2022/04/22 03:41:02;;;;;;;0.28;0.28;;;10.20;99.90;;;;;;4977134;28;20545;-77
2022/04/22 03:43:28;;;;;;;1.70;0.90;;;10.20;99.90;;;;;;4976975;28;20027;-84
2022/04/22 03:45:53;;;;;;;12.38;1.13;;;10.30;99.90;;;;;;4976946;28;20429;-77
2022/04/22 03:48:20;;;;;;;0.70;0.70;;;10.30;99.90;;;;;;4976919;28;20154;-76
2022/04/22 03:50:46;;;;;;;0.28;0.28;;;10.30;99.90;;;;;;4975690;28;20047;-77
2022/04/22 03:53:12;;;;;;;0.50;0.35;;;10.30;99.90;;;;;;4960369;28;20023;-85
2022/04/22 03:55:40;;;;;;;1.10;1.02;;;10.30;99.90;;;;;;4976987;28;20031;-77
2022/04/22 03:58:13;;;;;;;1.33;0.70;;;10.30;99.90;;;;;;4959119;28;20621;-76
2022/04/22 04:00:39;;;;;;;0.38;0.35;;;10.30;99.90;;;;;;4959006;28;20050;-85
2022/04/22 04:03:07;;;;;;;1.42;1.15;;;10.30;99.90;;;;;;4977110;28;20019;-77
2022/04/22 04:05:33;;;;;;;0.30;0.30;;;10.30;99.90;;;;;;4976651;28;20027;-77
2022/04/22 04:08:00;;;;;;;0.95;0.88;;;10.40;99.90;;;;;;4977050;28;20037;-77
2022/04/22 04:15:58;;;;;;;0.80;0.65;;;10.50;99.90;;;;;;4976600;28;20410;-77
2022/04/22 04:18:28;;;;;;;0.98;0.75;;;10.50;99.90;;;;;;4974939;28;20035;-77
2022/04/22 04:23:39;;;;;;;0.35;0.35;;;10.50;99.90;;;;;;4977100;28;20030;-85
2022/04/22 04:26:06;;;;;;;0.93;0.65;;;10.50;99.90;;;;;;4958994;28;20118;-77
2022/04/22 04:28:34;;;;;;;1.55;1.38;;;10.50;99.90;;;;;;4959033;28;20066;-78
2022/04/22 04:31:01;;;;;;;4.13;1.38;;;10.40;99.90;;;;;;4959104;28;20100;-85
2022/04/22 04:33:28;;;;;;;1.50;0.98;;;10.40;99.90;;;;;;4959220;28;20034;-76
2022/04/22 04:35:53;;;;;;;1.50;1.15;;;10.30;99.90;;;;;;4974643;28;20026;-76
2022/04/22 04:38:20;;;;;;;1.40;0.93;;;10.30;99.90;;;;;;4958924;28;20050;-85
2022/04/22 04:40:46;;;;;;;0.75;0.75;;;10.30;99.90;;;;;;4976098;28;20503;-85
2022/04/22 04:43:13;;;;;;;0.98;0.50;;;10.30;99.90;;;;;;4974388;28;20031;-76
2022/04/22 04:45:40;;;;;;;1.67;1.58;;;10.30;99.90;;;;;;4952866;29;20034;-84
2022/04/22 04:48:07;;;;;;;1.02;0.95;;;10.30;99.90;;;;;;4956834;29;20110;-84
2022/04/22 04:50:33;;;;;;;0.60;0.60;;;10.30;99.90;;;;;;4958789;28;20035;-84
2022/04/22 04:52:59;;;;;;;0.25;0.25;;;10.30;99.90;;;;;;4974305;28;20041;-84
2022/04/22 04:55:26;;;;;;;2.03;1.23;;;10.30;99.90;;;;;;4975555;28;20074;-77
2022/04/22 04:57:52;;;;;;;1.02;0.88;;;10.30;99.90;;;;;;4975649;28;20403;-77
2022/04/22 05:00:19;;;;;;;1.52;0.63;;;10.30;99.90;;;;;;4975488;28;20018;-77
2022/04/22 05:02:48;;;;;;;1.17;0.85;;;10.40;99.90;;;;;;4976313;28;20105;-85
2022/04/22 05:05:14;;;;;;;13.63;2.65;;;10.40;99.90;;;;;;4972656;28;20393;-77
2022/04/22 05:07:50;;;;;;;1.10;1.10;;;10.40;99.90;;;;;;4972900;28;20039;-84
2022/04/22 05:10:18;;;;;;;0.52;0.52;;;10.40;99.90;;;;;;4973487;28;20393;-84
2022/04/22 05:12:47;;;;;;;3.63;1.63;;;10.40;99.90;;;;;;4958730;28;20502;-84
2022/04/22 05:15:14;;;;;;;5.05;2.28;;;10.40;99.90;;;;;;4957809;28;20544;-77
2022/04/22 05:17:41;;;;;;;1.27;0.73;;;10.40;99.90;;;;;;4963575;28;20472;-82
2022/04/22 05:20:11;;;;;;;0.38;0.38;;;10.50;99.90;;;;;;4974002;28;20023;-77
2022/04/22 05:22:38;;;;;;;1.50;0.65;;;10.60;99.90;;;;;;4977722;28;20049;-76
2022/04/22 05:25:07;;;;;;;0.45;0.45;;;10.60;99.90;;;;;;4974866;28;20030;-85
2022/04/22 05:27:34;;;;;;;2.13;1.10;;;10.60;99.90;;;;;;4975155;28;20577;-77
2022/04/22 05:32:47;;;;;;;1.55;0.73;;;10.60;99.90;;;;;;4975262;28;20101;-77
2022/04/22 05:35:15;;;;;;;2.55;1.50;;;10.60;99.90;;;;;;4972665;28;20035;-77
2022/04/22 05:37:46;;;;;;;0.95;0.95;;;10.60;99.90;;;;;;4966673;28;20439;-85
2022/04/22 05:40:16;;;;;;;0.65;0.55;;;10.50;99.90;;;;;;4994495;28;20027;-77
2022/04/22 05:42:42;;;;;;;1.88;0.63;;;10.50;99.90;;;;;;4992697;28;20411;-78
2022/04/22 05:45:09;;;;;;;1.05;0.73;;;10.50;99.90;;;;;;4984552;28;20027;-77
2022/04/22 05:47:36;;;;;;;1.17;1.05;;;10.60;99.90;;;;;;4973649;28;20027;-77
2022/04/22 05:50:04;;;;;;;3.63;1.40;;;10.60;99.90;;;;;;4957278;28;20501;-77
2022/04/22 05:52:33;;;;;;;25.00;2.78;;;10.60;99.90;;;;;;4957238;28;20034;-77
2022/04/22 05:55:02;;;;;;;4.55;0.77;;;10.60;99.90;;;;;;4972482;28;20043;-85
2022/04/22 05:57:30;;;;;;;6.53;2.30;;;10.60;99.90;;;;;;4974315;28;20117;-77
2022/04/22 05:59:55;;;;;;;5.32;1.95;;;10.60;99.90;;;;;;4973275;28;20019;-85
2022/04/22 06:02:21;;;;;;;3.55;2.38;;;10.60;99.90;;;;;;4974693;28;20609;-85
2022/04/22 06:04:47;;;;;;;0.65;0.65;;;10.70;99.90;;;;;;4971596;28;20027;-77
2022/04/22 06:07:13;;;;;;;1.35;1.30;;;10.70;99.90;;;;;;4974123;28;20034;-77
2022/04/22 06:12:24;;;;;;;1.70;1.30;;;10.80;99.90;;;;;;4971790;28;20496;-78
2022/04/22 06:14:50;;;;;;;0.70;0.70;;;10.70;99.90;;;;;;4972583;28;20475;-78
2022/04/22 06:17:16;;;;;;;1.00;0.68;;;10.70;99.90;;;;;;4957023;28;20034;-77
2022/04/22 06:19:42;;;;;;;0.70;0.70;;;10.80;99.90;;;;;;4970606;28;20098;-77
2022/04/22 06:22:08;;;;;;;0.65;0.65;;;10.90;99.90;;;;;;4967893;28;20154;-78
2022/04/22 06:24:34;;;;;;;0.73;0.45;;;10.90;99.90;;;;;;4973766;28;20512;-78
2022/04/22 06:27:01;;;;;;;1.08;1.00;;;11.00;99.90;;;;;;4974413;28;20023;-79
2022/04/22 06:29:28;;;;;;;0.93;0.90;;;11.00;99.90;;;;;;4969630;28;20066;-77
2022/04/22 06:31:55;;;;;;;0.63;0.63;;;11.10;99.90;;;;;;4977821;28;20034;-78
2022/04/22 06:34:23;;;;;;;3.92;0.77;;;11.10;99.90;;;;;;4972749;28;20029;-77
2022/04/22 06:36:50;;;;;;;4.22;1.40;;;11.10;99.90;;;;;;4955370;28;20027;-78
2022/04/22 06:39:15;;;;;;;0.50;0.45;;;11.10;99.90;;;;;;4953194;29;20136;-77
2022/04/22 06:47:12;;;;;;;1.08;1.08;;;11.30;99.90;;;;;;4973179;28;20169;-83
2022/04/22 06:49:38;;;;;;;0.47;0.47;;;11.40;99.90;;;;;;4955229;28;20030;-76
2022/04/22 06:52:06;;;;;;;6.80;2.45;;;11.50;99.90;;;;;;4970724;28;20133;-77
2022/04/22 06:54:33;;;;;;;2.38;1.45;;;11.60;99.90;;;;;;4966557;28;20027;-77
2022/04/22 06:57:00;;;;;;;1.40;0.45;;;11.60;99.90;;;;;;4971900;28;20402;-83
2022/04/22 06:59:26;;;;;;;10.02;2.78;;;11.70;99.90;;;;;;4983587;28;20049;-77
2022/04/22 07:01:52;;;;;;;2.58;1.02;;;11.90;99.90;;;;;;4971108;28;20122;-83
2022/04/22 07:04:18;;;;;;;2.08;0.65;;;12.00;99.90;;;;;;4950814;29;20477;-77
2022/04/22 07:06:45;;;;;;;2.80;1.60;;;12.00;99.90;;;;;;4952636;29;20023;-83
2022/04/22 07:09:11;;;;;;;1.05;0.95;;;12.10;99.90;;;;;;4956909;28;20023;-83
2022/04/22 07:11:40;;;;;;;7.70;1.27;;;12.10;99.90;;;;;;4972995;28;20023;-80
2022/04/22 07:14:07;;;;;;;5.70;0.85;;;12.20;99.90;;;;;;4971635;28;20033;-81
2022/04/22 07:16:35;;;;;;;6.18;1.83;;;12.30;99.90;;;;;;4975235;28;20444;-81
2022/04/22 07:19:01;;;;;;;12.70;0.93;;;12.40;99.90;;;;;;4976076;28;20117;-80
2022/04/22 07:21:27;;;;;;;2.15;1.77;;;12.50;99.90;;;;;;4972508;28;20451;-81
2022/04/22 07:23:58;;;;;;;17.63;2.22;;;12.50;99.90;;;;;;4951265;28;20062;-81
2022/04/22 07:26:25;;;;;;;2.78;1.80;;;12.70;99.90;;;;;;4969310;28;20433;-81
2022/04/22 07:28:51;;;;;;;4.35;0.77;;;12.70;99.90;;;;;;4975453;28;20026;-80
2022/04/22 07:31:19;;;;;;;2.83;0.95;;;12.80;99.90;;;;;;4975035;28;20458;-80
2022/04/22 07:33:45;;;;;;;4.28;1.25;;;12.90;99.90;;;;;;4969647;28;20094;-80
2022/04/22 07:36:11;;;;;;;8.88;1.70;;;13.10;99.90;;;;;;4957022;29;20114;-82
2022/04/22 07:38:36;;;;;;;15.48;2.30;;;13.30;99.90;;;;;;4969151;28;20035;-82
2022/04/22 07:41:04;;;;;;;1.50;1.17;;;13.20;99.90;;;;;;4974669;28;20058;-81
2022/04/22 07:48:58;;;;;;;2.40;1.63;;;13.70;99.90;;;;;;4991832;28;20394;-80
2022/04/22 07:51:29;;;;;;;2.63;1.60;;;13.70;99.90;;;;;;4986106;28;20023;-81
2022/04/22 07:53:55;;;;;;;2.10;1.73;;;13.70;99.90;;;;;;4975793;28;20031;-82
2022/04/22 07:56:21;;;;;;;2.30;1.30;;;13.90;99.90;;;;;;4974298;28;20446;-80
2022/04/22 07:58:47;;;;;;;0.70;0.70;;;14.00;99.90;;;;;;4975993;28;20062;-83
2022/04/22 08:01:12;;;;;;;1.67;1.58;;;14.00;99.90;;;;;;4975908;28;20030;-80
2022/04/22 08:03:38;;;;;;;3.55;1.75;;;14.30;99.90;;;;;;4975581;28;20041;-83
2022/04/22 08:06:15;;;;;;;1.27;0.88;;;14.60;99.90;;;;;;4958236;28;20077;-82
2022/04/22 08:08:40;;;;;;;5.10;2.05;;;14.50;99.90;;;;;;4975892;28;20034;-81
2022/04/22 08:11:06;;;;;;;1.27;1.17;;;14.30;99.90;;;;;;4976118;28;20034;-81
2022/04/22 08:13:34;;;;;;;4.50;1.08;;;14.50;99.90;;;;;;4974452;28;20042;-82
2022/04/22 08:16:00;;;;;;;2.55;1.98;;;15.10;99.90;;;;;;4958401;28;20173;-79
2022/04/22 08:18:26;;;;;;;4.90;1.17;;;15.00;99.90;;;;;;4981545;28;20110;-86
2022/04/22 08:20:52;;;;;;;5.13;2.22;;;15.10;99.90;;;;;;4958933;28;20035;-80
2022/04/22 08:23:21;;;;;;;2.13;1.27;;;15.00;99.90;;;;;;4977343;28;20026;-81
2022/04/22 08:25:46;;;;;;;4.75;2.05;;;15.10;99.90;;;;;;4985637;28;20084;-81
2022/04/22 08:28:12;;;;;;;4.95;2.35;;;14.80;99.90;;;;;;4974630;28;20022;-84
2022/04/22 08:30:38;;;;;;;3.33;1.35;;;14.50;99.90;;;;;;4976045;28;20026;-85
2022/04/22 08:33:03;;;;;;;4.55;2.33;;;14.40;99.90;;;;;;4977906;28;20075;-81
2022/04/22 08:35:32;;;;;;;18.30;4.03;;;14.40;99.90;;;;;;4978147;28;20030;-81
2022/04/22 08:38:09;;;;;;;3.17;1.48;;;14.50;99.90;;;;;;4966297;28;20023;-81
2022/04/22 08:40:38;;;;;;;0.82;0.80;;;14.60;99.90;;;;;;4955943;28;20054;-80
2022/04/22 08:43:08;;;;;;;6.05;2.03;;;14.80;99.90;;;;;;4956532;29;20422;-85
2022/04/22 08:45:35;;;;;;;2.92;1.48;;;15.00;99.90;;;;;;4965358;28;20379;-81
2022/04/22 08:50:52;;;;;;;3.95;1.98;;;15.20;99.90;;;;;;4971258;28;20037;-82
2022/04/22 08:53:23;;;;;;;2.80;1.70;;;15.20;99.90;;;;;;4973631;28;20026;-80
2022/04/22 08:55:56;;;;;;;2.30;1.70;;;15.10;99.90;;;;;;4963493;28;20562;-81
2022/04/22 08:58:23;;;;;;;;;;;15.00;99.90;;;;;;4979297;28;20038;-79
2022/04/22 09:00:52;;;;;;;11.10;1.15;;;15.20;99.90;;;;;;4976623;28;19956;-79
2022/04/22 09:03:18;;;;;;;1.20;1.13;;;15.30;99.90;;;;;;4993643;28;20452;-81
2022/04/22 09:05:44;;;;;;;1.63;1.25;;;15.40;99.90;;;;;;4970941;28;20494;-82
2022/04/22 09:08:10;;;;;;;12.20;1.55;;;15.30;99.90;;;;;;4972397;28;20030;-82
2022/04/22 09:10:38;;;;;;;24.35;1.52;;;15.30;99.90;;;;;;4968600;28;20031;-81
2022/04/22 09:13:09;;;;;;;12.05;1.40;;;15.40;99.90;;;;;;4969630;28;20022;-79
2022/04/22 09:15:38;;;;;;;2.97;1.35;;;15.60;99.90;;;;;;4963388;28;20026;-79
2022/04/22 09:18:12;;;;;;;7.53;2.15;;;15.70;99.90;;;;;;4961393;28;20033;-80
2022/04/22 09:20:39;;;;;;;1.63;0.82;;;15.70;99.90;;;;;;4969875;28;20026;-80
2022/04/22 09:23:32;;;;;;;0.88;0.75;;;15.70;99.90;;;;;;4969206;28;20027;-82
2022/04/22 09:25:59;;;;;;;1.70;0.90;;;15.70;99.90;;;;;;4974286;28;20583;-80
2022/04/22 09:28:25;;;;;;;1.85;1.65;;;15.50;99.90;;;;;;4973441;28;20402;-81
2022/04/22 09:30:56;;;;;;;1.73;0.82;;;15.50;99.90;;;;;;4972245;28;20031;-80
2022/04/22 09:33:22;;;;;;;2.78;1.20;;;15.30;99.90;;;;;;4973350;28;20027;-82
2022/04/22 09:44:24;;;;;;;2.88;1.10;;;14.90;99.90;;;;;;4973432;28;20081;-80
2022/04/22 09:47:10;;;;;;;2.40;1.38;;;15.00;99.90;;;;;;4958705;28;20018;-80
2022/04/22 09:49:43;;;;;;;4.00;1.58;;;15.20;99.90;;;;;;4972728;28;20463;-81
2022/04/22 09:52:09;;;;;;;10.63;2.13;;;15.30;99.90;;;;;;4956501;28;20019;-81
2022/04/22 09:54:34;;;;;;;3.90;1.58;;;15.40;99.90;;;;;;4973065;28;20399;-83
2022/04/22 09:57:01;;;;;;;2.03;0.70;;;15.40;99.90;;;;;;4980498;28;20105;-80
2022/04/22 09:59:28;;;;;;;3.45;1.98;;;15.20;99.90;;;;;;4970673;28;20065;-82
2022/04/22 10:01:54;;;;;;;0.75;0.68;;;15.10;99.90;;;;;;4976471;28;20395;-80
2022/04/22 10:04:22;;;;;;;2.80;1.98;;;15.00;99.90;;;;;;4979532;28;20113;-81
2022/04/22 10:06:49;;;;;;;3.65;1.15;;;15.00;99.90;;;;;;4988005;28;20014;-80
2022/04/22 10:09:16;;;;;;;2.42;0.90;;;15.00;99.90;;;;;;4971073;28;20115;-83
2022/04/22 10:11:44;;;;;;;3.22;1.80;;;15.00;99.90;;;;;;4980972;28;20023;-82
2022/04/22 10:14:11;;;;;;;5.10;1.80;;;15.10;99.90;;;;;;4957476;28;20030;-79
2022/04/22 10:16:38;;;;;;;1.65;1.33;;;15.10;99.90;;;;;;4954406;28;20023;-79
2022/04/22 10:19:05;;;;;;;4.28;1.50;;;15.20;99.90;;;;;;4973224;28;20069;-79
2022/04/22 10:21:32;;;;;;;1.92;1.05;;;15.20;99.90;;;;;;4987468;28;20210;-80
2022/04/22 10:24:08;;;;;;;3.05;1.70;;;15.20;99.90;;;;;;4971656;28;20088;-78
2022/04/22 10:26:34;;;;;;;1.25;0.95;;;15.30;99.90;;;;;;4972829;28;20546;-79
2022/04/22 10:29:03;;;;;;;4.57;2.67;;;15.40;99.90;;;;;;4972317;28;20027;-79
2022/04/22 10:31:29;;;;;;;1.33;1.15;;;15.50;99.90;;;;;;4973170;28;20406;-80
2022/04/22 10:34:06;;;;;;;5.13;1.92;;;15.70;99.90;;;;;;4984164;28;20062;-80
2022/04/22 10:36:33;;;;;;;15.68;1.60;;;15.90;99.90;;;;;;4990096;28;20038;-79
2022/04/22 10:39:00;;;;;;;4.32;1.38;;;16.20;99.90;;;;;;4971599;28;20150;-82
2022/04/22 10:41:26;;;;;;;8.27;3.00;;;16.70;99.90;;;;;;4978998;28;20085;-80
2022/04/22 10:49:43;;;;;;;6.88;1.65;;;18.30;99.90;;;;;;4977628;28;20064;-80
2022/04/22 10:52:10;;;;;;;3.60;1.30;;;18.80;99.90;;;;;;4972333;28;20030;-84
2022/04/22 10:54:54;;;;;;;2.88;1.77;;;19.60;99.90;;;;;;4975120;28;20031;-84
2022/04/22 10:57:23;;;;;;;5.03;1.83;;;20.60;99.90;;;;;;4976133;28;20062;-83
2022/04/22 11:00:12;;;;;;;2.95;2.03;;;20.80;99.90;;;;;;4977492;28;20106;-83
2022/04/22 11:02:42;;;;;;;4.30;2.42;;;21.20;99.90;;;;;;4962378;28;20035;-84
2022/04/22 11:05:19;;;;;;;4.03;2.13;;;20.90;99.90;;;;;;4957853;28;20027;-84
2022/04/22 11:07:58;;;;;;;4.82;1.80;;;20.80;99.90;;;;;;4978675;28;20454;-83
2022/04/22 11:10:45;;;;;;;2.40;1.55;;;20.60;99.90;;;;;;4979534;28;20394;-83
2022/04/22 11:13:50;;;;;;;3.80;2.13;;;20.10;99.90;;;;;;4975673;28;20030;-83
2022/04/22 11:16:22;;;;;;;4.10;1.58;;;19.60;99.90;;;;;;4975721;28;20470;-83
2022/04/22 11:19:10;;;;;;;13.93;2.88;;;19.60;99.90;;;;;;4976417;28;20118;-84
2022/04/22 11:21:36;;;;;;;8.30;2.70;;;19.80;99.90;;;;;;4977035;28;20023;-83
2022/04/22 11:24:15;;;;;;;2.75;1.35;;;20.00;99.90;;;;;;4978304;28;20045;-84
2022/04/22 11:26:42;;;;;;;3.70;1.67;;;20.30;99.90;;;;;;4963738;28;20026;-83
2022/04/22 11:29:10;;;;;;;1.92;1.13;;;20.20;99.90;;;;;;4975324;28;20073;-85
2022/04/22 11:31:38;;;;;;;2.25;1.45;;;20.30;99.90;;;;;;4975530;28;20034;-83
2022/04/22 11:34:10;;;;;;;3.28;1.70;;;20.10;99.90;;;;;;4960882;28;20050;-83
2022/04/22 11:36:47;;;;;;;5.63;1.97;;;19.90;99.90;;;;;;4970681;28;20066;-81
2022/04/22 11:39:15;;;;;;;4.30;2.13;;;19.60;99.90;;;;;;4976881;28;20106;-82
2022/04/22 11:42:00;;;;;;;3.65;2.00;;;19.40;99.90;;;;;;4980117;28;20051;-83
2022/04/22 11:44:27;;;;;;;2.67;1.20;;;19.50;99.90;;;;;;4978543;28;20023;-82
2022/04/22 11:46:54;;;;;;;8.40;2.30;;;19.50;99.90;;;;;;4984508;28;20030;-83
2022/04/22 11:51:56;;;;;;;1.85;1.27;;;19.40;99.90;;;;;;5618961;22;19933;-83
2022/04/22 11:54:27;;;;;;;12.27;1.48;;;19.60;99.90;;;;;;5012495;28;20370;-80
2022/04/22 11:56:53;;;;;;;10.45;2.55;;;19.70;99.90;;;;;;5013785;28;20028;-81
2022/04/22 11:59:22;;;;;;;2.95;1.25;;;19.50;99.90;;;;;;5013730;28;20076;-82
2022/04/22 12:10:07;;;;;;;9.93;2.35;;;19.10;99.90;;;;;;5020053;28;20083;-80
2022/04/22 12:12:34;;;;;;;7.35;2.10;;;19.70;99.90;;;;;;5023023;28;20052;-82
2022/04/22 12:15:05;;;;;;;5.75;1.58;;;20.90;99.90;;;;;;5012476;28;20497;-83
2022/04/22 12:17:32;;;;;;;7.28;1.77;;;21.30;99.90;;;;;;4994372;28;20023;-83
2022/04/22 12:19:58;;;;;;;13.13;3.08;;;21.30;99.90;;;;;;4999041;28;20545;-80
2022/04/22 12:22:25;;;;;;;3.10;1.98;;;20.90;99.90;;;;;;5013994;28;20129;-80
2022/04/22 12:25:10;;;;;;;3.88;2.47;;;20.80;99.90;;;;;;5025866;28;20432;-80
2022/04/22 12:27:38;;;;;;;3.40;2.03;;;20.70;99.90;;;;;;5014317;28;20036;-80
2022/04/22 12:30:06;;;;;;;3.25;1.55;;;20.60;99.90;;;;;;5012244;28;20405;-81
2022/04/22 12:32:53;;;;;;;7.10;3.65;;;20.90;99.90;;;;;;5005528;28;20116;-86
2022/04/22 12:35:19;;;;;;;2.55;1.70;;;21.00;99.90;;;;;;5002101;28;20076;-80
2022/04/22 12:37:52;;;;;;;5.88;1.58;;;21.10;99.90;;;;;;5007144;28;20041;-82
2022/04/22 12:40:19;;;;;;;2.05;1.52;;;20.80;99.90;;;;;;5013236;28;20080;-79
2022/04/22 12:42:47;;;;;;;4.95;1.83;;;20.50;99.90;;;;;;5022656;28;20616;-80
2022/04/22 12:53:50;;;;;;;3.75;2.15;;;20.00;99.90;;;;;;5001244;28;20060;-83
2022/04/22 12:56:17;;;;;;;4.43;2.42;;;20.10;99.90;;;;;;5013159;28;20037;-80
2022/04/22 12:58:55;;;;;;;3.30;1.20;;;20.40;99.90;;;;;;5012772;28;20085;-80
2022/04/22 13:01:26;;;;;;;7.28;2.45;;;20.70;99.90;;;;;;5030035;28;20040;-81
2022/04/22 13:03:52;;;;;;;15.98;2.83;;;21.00;99.90;;;;;;5032754;28;20032;-80
2022/04/22 13:06:44;;;;;;;5.82;1.73;;;21.30;99.90;;;;;;5033222;28;20403;-84
2022/04/22 13:09:13;;;;;;;3.88;1.98;;;21.40;99.90;;;;;;5029131;28;20054;-83
2022/04/22 13:11:45;;;;;;;9.50;1.67;;;21.20;99.90;;;;;;5011488;28;20071;-80
2022/04/22 13:14:12;;;;;;;6.77;2.67;;;20.70;99.90;;;;;;5018041;28;20164;-84
2022/04/22 13:16:38;;;;;;;3.47;1.90;;;20.90;99.90;;;;;;5032480;28;20432;-84
2022/04/22 13:19:04;;;;;;;5.25;2.55;;;21.60;99.90;;;;;;5032257;28;20030;-83
2022/04/22 13:21:30;;;;;;;3.30;1.67;;;21.90;99.90;;;;;;5014351;28;20028;-82
2022/04/22 13:23:56;;;;;;;3.47;2.15;;;22.20;99.90;;;;;;5012129;28;20493;-80
2022/04/22 13:26:23;;;;;;;6.82;2.15;;;22.80;99.90;;;;;;5012556;28;20064;-80
2022/04/22 13:28:49;;;;;;;7.88;1.60;;;23.10;99.90;;;;;;5011256;28;20057;-80
2022/04/22 13:31:16;;;;;;;8.13;1.80;;;22.40;99.90;;;;;;5005763;28;20030;-81
2022/04/22 13:33:42;;;;;;;3.85;1.80;;;22.00;99.90;;;;;;4998914;28;20108;-80
2022/04/22 13:36:10;;;;;;;3.92;1.58;;;21.70;99.90;;;;;;5007756;28;20037;-81
2022/04/22 13:38:37;;;;;;;2.55;1.52;;;22.10;99.90;;;;;;5030728;28;20053;-80
2022/04/22 13:41:05;;;;;;;7.10;2.20;;;22.60;99.90;;;;;;5032083;28;20105;-81
2022/04/22 13:43:32;;;;;;;3.17;1.77;;;23.10;99.90;;;;;;5031779;28;20018;-80
2022/04/22 13:54:12;;;;;;;5.45;1.90;;;22.50;99.90;;;;;;5003311;28;20441;-83
2022/04/22 13:56:40;;;;;;;3.03;1.63;;;22.30;99.90;;;;;;4992331;28;20026;-83
2022/04/22 13:59:06;;;;;;;3.60;1.48;;;22.10;99.90;;;;;;4993806;28;20026;-84
2022/04/22 14:01:32;;;;;;;3.22;1.35;;;22.10;99.90;;;;;;4994137;28;20033;-80
2022/04/22 14:03:58;;;;;;;7.47;2.05;;;21.60;99.90;;;;;;4994098;28;20018;-79
2022/04/22 14:06:24;;;;;;;3.88;1.85;;;21.00;99.90;;;;;;4993557;28;20026;-79
2022/04/22 14:08:51;;;;;;;2.00;1.52;;;20.40;99.90;;;;;;4993695;28;20022;-79
2022/04/22 14:11:17;;;;;;;13.25;2.00;;;20.10;99.90;;;;;;5006337;28;20052;-80
2022/04/22 14:13:44;;;;;;;5.05;1.38;;;20.10;99.90;;;;;;5012343;28;20026;-80